• Join FlightAware (Why Join?)
  • Login
  • US Flag 
09:50PM EDT


 

Airport Tracker/Info


-or-


 

Live Flight TrackerFlight Track Log ✈ N319EE ✈ 10-Oct-2013 ✈ KPWM - KROC

Flight Track Log - Related Links

Times and Time Zones

All times are in EDT time to prevent confusion due to time zone crossing. See the N319EE flight status page for this flight to view local times or setup timezone preferences in your user account.

Time Position Orientation Groundspeed Altitude Reporting Facility
EDT Latitude Longitude Course Direction KTS MPH feet Rate Location/Type
03:34PM 43.6761 -70.4994 280° West 174 200 5,100  Level Boston Center
03:35PM 43.6856 -70.5681 281° West 184 212 7,200 1,680 Climbing Boston Center
03:36PM 43.6886 -70.6311 274° West 184 212 8,600 1,440 Climbing Boston Center
03:37PM 43.6856 -70.7089 267° West 179 206 10,200 1,260 Climbing Boston Center
03:38PM 43.6223 -70.8710 256° West  Level Estimated
03:38PM 43.6825 -70.7836 267° West 201 231 11,200  Level Boston Center
03:39PM 43.6756 -70.8842 265° West 234 269 12,200 960 Climbing Boston Center
03:40PM 43.6725 -70.9647 267° West 242 278 13,200 960 Climbing Boston Center
03:41PM 43.6656 -71.0739 265° West 255 293 14,200 1,020 Climbing Boston Center
03:42PM 43.6606 -71.1717 266° West 261 300 15,300 780 Climbing Boston Center
03:43PM 43.6553 -71.2694 266° West 256 295 15,800 300 Climbing Boston Center
03:44PM 43.6500 -71.3728 266° West 268 308 16,000 60 Climbing Boston Center
03:45PM 43.6447 -71.4847 266° West 292 336 16,000  Level Boston Center
03:46PM 43.6394 -71.5939 266° West 292 336 16,000  Level Boston Center
03:47PM 43.6317 -71.7000 264° West 292 336 16,000  Level Boston Center
03:48PM 43.6261 -71.8006 266° West 292 336 16,000  Level Boston Center
03:49PM 43.6203 -71.9067 266° West 292 336 16,000  Level Boston Center
03:50PM 43.6125 -72.0128 264° West 292 336 16,000  Level Boston Center
03:51PM 43.6067 -72.1219 266° West 292 336 16,000  Level Boston Center
03:52PM 43.6006 -72.2281 265° West 292 336 16,000  Level Boston Center
03:53PM 43.5925 -72.3397 264° West 292 336 16,000  Level Boston Center
03:54PM 43.5883 -72.4458 267° West 292 336 16,000  Level Boston Center
03:55PM 43.5800 -72.5575 264° West 292 336 16,000  Level Boston Center
03:56PM 43.5736 -72.6664 265° West 292 336 16,000  Level Boston Center
03:57PM 43.5650 -72.7781 264° West 292 336 16,000  Level Boston Center
03:58PM 43.5561 -72.8869 264° West 292 336 16,000  Level Boston Center
03:59PM 43.5453 -73.0072 263° West 292 336 16,000  Level Boston Center
04:00PM 43.5383 -73.1161 265° West 292 336 16,000  Level Boston Center
04:01PM 43.5314 -73.2247 265° West 292 336 16,000  Level Boston Center
04:02PM 43.5222 -73.3364 264° West 292 336 16,000  Level Boston Center
04:03PM 43.5150 -73.4478 265° West 292 336 16,000  Level Boston Center
04:04PM 43.5058 -73.5594 264° West 292 336 16,000  Level Boston Center
04:05PM 43.4983 -73.6708 265° West 292 336 16,000  Level Boston Center
04:06PM 43.4889 -73.7794 263° West 292 336 16,000  Level Boston Center
04:07PM 43.4789 -73.8936 263° West 292 336 16,000  Level Boston Center
04:08PM 43.4714 -74.0022 265° West 297 342 16,000  Level Boston Center
04:09PM 43.4633 -74.1192 265° West 297 342 16,000  Level Boston Center
04:10PM 43.4514 -74.2275 261° West 297 342 16,000  Level Boston Center
04:11PM 43.4433 -74.3417 264° West 297 342 16,000  Level Boston Center
04:12PM 43.4350 -74.4586 264° West 297 342 16,000  Level Boston Center
04:13PM 43.4247 -74.5669 263° West 297 342 16,000  Level Boston Center
04:14PM 43.4164 -74.6783 264° West 297 342 16,000  Level Boston Center
04:15PM 43.4056 -74.7950 263° West 292 336 16,000  Level Boston Center
04:16PM 43.3969 -74.9061 264° West 292 336 16,000  Level Boston Center
04:17PM 43.3883 -75.0144 264° West 292 336 16,000  Level Boston Center
04:18PM 43.3775 -75.1283 263° West 292 336 16,000  Level Boston Center
04:19PM 43.3728 -75.2367 267° West 292 336 16,000  Level Boston Center
04:20PM 43.3597 -75.3444 261° West 299 344 16,000  Level Boston Center
04:21PM 43.3483 -75.4553 262° West 299 344 16,000  Level Boston Center
04:22PM 43.3392 -75.5661 264° West 299 344 16,000  Level Boston Center
04:23PM 43.3278 -75.6769 262° West 294 338 16,000  Level Boston Center
04:24PM 43.3164 -75.7878 262° West 294 338 16,000  Level Boston Center
04:25PM 43.3067 -75.8986 263° West 294 338 16,000  Level Boston Center
04:26PM 43.2969 -76.0092 263° West 294 338 16,000  Level Boston Center
04:27PM 43.2853 -76.1197 262° West 294 338 16,000  Level Boston Center
04:29PM 43.2642 -76.3114 261° West 291 335 16,000  Level Cleveland Center
04:30PM 43.2539 -76.4214 263° West 291 335 16,000  Level Cleveland Center
04:31PM 43.2417 -76.5306 261° West 291 335 16,000  Level Cleveland Center
04:32PM 43.2300 -76.6397 262° West 289 333 16,000 -480 Level Cleveland Center
04:33PM 43.2158 -76.7733 262° West 293 337 15,100 -1,260 Descending Cleveland Center
04:34PM 43.2017 -76.9008 261° West 320 368 13,500 -1,560 Descending Cleveland Center
04:35PM 43.1925 -76.9969 263° West 316 364 12,300 -1,380 Descending Cleveland Center
04:35PM 43.1897 -77.0189 260° West 317 365 12,100 -1,020 Descending Cleveland Center
04:36PM 43.1836 -77.0933 264° West 308 354 11,500 -1,020 Descending Cleveland Center
04:36PM 43.1653 -77.1267 233° Southwest 300 345 11,100 -1,140 Descending Cleveland Center
04:37PM 43.1308 -77.1839 230° Southwest 298 343 10,400 -1,380 Descending Cleveland Center
04:38PM 43.0767 -77.2683 229° Southwest 295 339 9,000 -1,260 Descending Cleveland Center
04:38PM 43.0603 -77.2956 231° Southwest 286 329 8,500 -1,500 Descending Cleveland Center
04:39PM 43.0278 -77.3453 228° Southwest 266 306 7,500 -1,800 Descending Cleveland Center
04:39PM 43.0022 -77.3889 231° Southwest 272 313 6,700 -1,380 Descending Cleveland Center
04:40PM 42.9783 -77.4394 237° Southwest 268 308 6,000 -1,080 Descending Cleveland Center
04:40PM 42.9792 -77.4772 272° West 258 297 5,600 -1,260 Descending Cleveland Center
04:41PM 42.9783 -77.5464 269° West 265 305 4,600 -1,380 Descending Cleveland Center
04:41PM 42.9772 -77.5758 267° West 262 302 4,200 -1,560 Descending Cleveland Center
04:42PM 42.9783 -77.6361 271° West 253 291 3,200 -960 Descending Cleveland Center
04:43PM 43.0292 -77.7189 310° West 214 246 2,300 -780 Descending Cleveland Center
04:44PM 43.0517 -77.7308 339° North 132 152 1,700 -900 Descending Cleveland Center
04:44PM 43.0711 -77.7172 27° Northeast 162 186 1,400 -720 Descending Cleveland Center
04:45PM 43.0847 -77.7078 27° Northeast 142 163 1,100 -720 Descending Cleveland Center
04:45PM 43.1025 -77.6900 36° Northeast 145 167 700 -300 Descending Cleveland Center
04:46PM 43.1264 -77.6692 32° Northeast 136 157 600 -120 Descending Cleveland Center